createdAt,value
2023-01-26T00:01:13.913Z,7.32
2023-01-26T00:03:41.094Z,7.13
2023-01-26T00:06:08.824Z,8.68
2023-01-26T00:08:37.016Z,8.00
2023-01-26T00:11:04.872Z,12.38
2023-01-26T00:13:32.368Z,9.05
2023-01-26T00:15:59.581Z,12.18
2023-01-26T00:18:26.754Z,10.68
2023-01-26T00:20:57.961Z,10.88
2023-01-26T00:23:25.396Z,10.57
2023-01-26T00:25:52.538Z,11.13
2023-01-26T00:28:19.683Z,10.52
2023-01-26T00:30:46.912Z,12.27
2023-01-26T00:33:14.077Z,11.70
2023-01-26T00:35:44.547Z,11.05
2023-01-26T00:38:14.674Z,13.38
2023-01-26T00:40:42.506Z,12.98
2023-01-26T00:43:09.635Z,15.43
2023-01-26T00:45:37.386Z,11.88
2023-01-26T00:48:04.569Z,11.85
2023-01-26T00:50:31.760Z,14.23
2023-01-26T00:52:58.885Z,14.70
2023-01-26T00:55:32.280Z,16.13
2023-01-26T00:58:00.089Z,17.27
2023-01-26T01:00:27.372Z,17.63
2023-01-26T01:02:56.333Z,17.23
2023-01-26T01:05:25.886Z,17.20
2023-01-26T01:07:53.120Z,15.57
2023-01-26T01:10:20.489Z,12.48
2023-01-26T01:12:47.633Z,11.88
2023-01-26T01:15:14.934Z,13.38
2023-01-26T01:17:42.321Z,15.10
2023-01-26T01:20:10.373Z,14.15
2023-01-26T01:22:37.857Z,12.18
2023-01-26T01:25:05.331Z,13.15
2023-01-26T01:27:32.494Z,11.93
2023-01-26T01:29:59.677Z,13.90
2023-01-26T01:32:26.792Z,13.82
2023-01-26T01:34:54.027Z,13.77
2023-01-26T01:37:21.234Z,12.40
2023-01-26T01:39:49.605Z,11.65
2023-01-26T01:42:16.744Z,11.75
2023-01-26T01:44:43.917Z,9.40
2023-01-26T01:47:15.924Z,9.77
2023-01-26T01:49:50.272Z,12.57
2023-01-26T01:52:20.410Z,14.57
2023-01-26T01:54:48.834Z,15.82
2023-01-26T01:57:18.234Z,15.17
2023-01-26T01:59:47.273Z,18.77
2023-01-26T02:02:14.590Z,19.00
2023-01-26T02:04:42.188Z,16.27
2023-01-26T02:07:09.327Z,16.55
2023-01-26T02:09:55.558Z,17.23
2023-01-26T02:12:25.504Z,17.60
2023-01-26T02:14:53.275Z,16.77
2023-01-26T02:17:20.520Z,14.77
2023-01-26T02:19:50.976Z,19.38
2023-01-26T02:22:22.592Z,17.95
2023-01-26T02:24:49.743Z,19.77
2023-01-26T02:27:16.906Z,19.50
2023-01-26T02:29:44.139Z,19.05
2023-01-26T02:32:11.319Z,20.43
2023-01-26T02:34:38.575Z,15.47
2023-01-26T02:37:05.770Z,20.00
2023-01-26T02:39:32.899Z,20.27
2023-01-26T02:42:18.916Z,17.93
2023-01-26T02:44:46.134Z,17.03
2023-01-26T02:47:14.014Z,21.03
2023-01-26T02:49:47.030Z,19.88
2023-01-26T02:52:18.114Z,21.10
2023-01-26T02:55:03.875Z,18.27
2023-01-26T02:57:31.075Z,21.92
2023-01-26T02:59:58.331Z,20.30
2023-01-26T03:02:25.521Z,18.73
2023-01-26T03:04:52.682Z,20.73
2023-01-26T03:07:19.975Z,18.35
2023-01-26T03:09:47.125Z,18.52
2023-01-26T03:12:14.251Z,19.35
2023-01-26T03:14:41.412Z,20.60
2023-01-26T03:17:08.568Z,20.10
2023-01-26T03:19:54.174Z,20.48
2023-01-26T03:22:40.179Z,20.25
2023-01-26T03:25:25.879Z,18.70
2023-01-26T03:27:53.026Z,22.77
2023-01-26T03:30:20.260Z,21.60
2023-01-26T03:32:47.558Z,23.48
2023-01-26T03:35:22.551Z,21.75
2023-01-26T03:37:54.892Z,20.23
2023-01-26T03:40:40.783Z,22.75
2023-01-26T03:43:27.152Z,23.70
2023-01-26T03:46:13.351Z,21.50
2023-01-26T03:48:59.008Z,21.38
2023-01-26T03:51:45.091Z,22.80
2023-01-26T03:54:31.043Z,20.27
2023-01-26T03:56:58.232Z,20.50
2023-01-26T03:59:38.113Z,24.00
2023-01-26T04:02:24.647Z,21.35
2023-01-26T04:05:10.239Z,22.73
2023-01-26T04:07:56.196Z,22.55
2023-01-26T04:10:23.447Z,24.77
2023-01-26T04:13:09.174Z,21.90
2023-01-26T04:15:55.267Z,23.20
2023-01-26T04:18:41.268Z,25.70
2023-01-26T04:21:28.058Z,22.90
2023-01-26T04:23:57.978Z,22.80
2023-01-26T04:26:25.785Z,17.63
2023-01-26T04:28:52.941Z,24.48
2023-01-26T04:31:20.169Z,21.23
2023-01-26T04:33:47.785Z,25.83
2023-01-26T04:36:14.934Z,21.25
2023-01-26T04:38:42.108Z,23.30
2023-01-26T04:41:09.274Z,21.77
2023-01-26T04:43:36.498Z,26.10
2023-01-26T04:46:04.625Z,24.67
2023-01-26T04:48:32.081Z,25.08
2023-01-26T04:51:00.261Z,23.50
2023-01-26T04:53:27.595Z,23.77
2023-01-26T04:55:54.802Z,29.27
2023-01-26T04:58:22.041Z,27.75
2023-01-26T05:00:52.759Z,27.55
2023-01-26T05:03:19.969Z,28.50
2023-01-26T05:05:49.520Z,27.30
2023-01-26T05:08:16.825Z,27.38
2023-01-26T05:10:44.125Z,30.58
2023-01-26T05:13:11.313Z,27.50
2023-01-26T05:15:38.455Z,32.83
2023-01-26T05:18:05.724Z,28.02
2023-01-26T05:20:32.927Z,31.13
2023-01-26T05:23:00.235Z,30.00
2023-01-26T05:25:27.381Z,26.35
2023-01-26T05:27:54.605Z,28.95
2023-01-26T05:30:21.846Z,30.50
2023-01-26T05:32:49.011Z,28.75
2023-01-26T05:35:16.301Z,25.48
2023-01-26T05:37:43.461Z,26.13
2023-01-26T05:40:11.519Z,25.27
2023-01-26T05:42:38.946Z,26.90
2023-01-26T05:45:06.428Z,24.48
2023-01-26T05:47:33.643Z,26.92
2023-01-26T05:50:00.888Z,23.48
2023-01-26T05:52:28.109Z,21.55
2023-01-26T05:54:55.249Z,24.10
2023-01-26T05:57:22.425Z,22.10
2023-01-26T05:59:49.581Z,24.80
2023-01-26T06:02:16.804Z,22.15
2023-01-26T06:04:44.040Z,21.23
2023-01-26T06:07:13.562Z,19.80
2023-01-26T06:09:41.062Z,22.92
2023-01-26T06:12:10.270Z,19.48
2023-01-26T06:14:37.451Z,18.23
2023-01-26T06:17:04.633Z,15.38
2023-01-26T06:19:31.778Z,20.60
2023-01-26T06:21:59.008Z,16.17
2023-01-26T06:24:26.408Z,16.70
2023-01-26T06:26:53.666Z,15.18
2023-01-26T06:29:20.788Z,18.77
2023-01-26T06:31:48.366Z,18.35
2023-01-26T06:34:15.568Z,17.30
2023-01-26T06:36:42.755Z,21.75
2023-01-26T06:39:10.617Z,19.83
2023-01-26T06:41:37.746Z,17.60
2023-01-26T06:44:04.892Z,16.83
2023-01-26T06:46:32.443Z,16.30
2023-01-26T06:48:59.566Z,14.73
2023-01-26T06:51:41.576Z,17.05
2023-01-26T06:54:12.043Z,18.33
2023-01-26T06:56:39.479Z,19.80
2023-01-26T06:59:06.698Z,17.30
2023-01-26T07:01:34.802Z,18.67
2023-01-26T07:04:02.008Z,20.75
2023-01-26T07:06:29.178Z,18.52
2023-01-26T07:08:56.313Z,17.90
2023-01-26T07:11:25.330Z,20.27
2023-01-26T07:13:52.697Z,20.65
2023-01-26T07:16:19.999Z,20.58
2023-01-26T07:18:47.179Z,23.25
2023-01-26T07:21:22.945Z,17.80
2023-01-26T07:23:51.508Z,19.33
2023-01-26T07:26:18.794Z,23.10
2023-01-26T07:28:46.408Z,20.60
2023-01-26T07:31:13.811Z,19.80
2023-01-26T07:33:41.086Z,23.80
2023-01-26T07:36:08.362Z,21.38
2023-01-26T07:38:35.551Z,21.80
2023-01-26T07:41:06.149Z,24.45
2023-01-26T07:43:34.211Z,23.98
2023-01-26T07:46:01.420Z,28.77
2023-01-26T07:48:29.927Z,23.83
2023-01-26T07:51:00.591Z,24.67
2023-01-26T07:53:29.358Z,23.48
2023-01-26T07:56:06.049Z,21.05
2023-01-26T07:58:33.219Z,23.25
2023-01-26T08:01:07.525Z,20.08
2023-01-26T08:03:34.994Z,22.00
2023-01-26T08:06:02.201Z,21.10
2023-01-26T08:08:29.604Z,20.48
2023-01-26T08:10:57.820Z,24.67
2023-01-26T08:13:34.749Z,21.42
2023-01-26T08:16:03.615Z,20.10
2023-01-26T08:18:31.032Z,22.10
2023-01-26T08:20:58.220Z,22.98
2023-01-26T08:23:25.443Z,21.77
2023-01-26T08:25:52.641Z,22.50
2023-01-26T08:28:21.192Z,20.00
2023-01-26T08:30:48.515Z,20.25
2023-01-26T08:33:15.666Z,22.98
2023-01-26T08:35:42.898Z,20.15
2023-01-26T08:38:10.136Z,26.77
2023-01-26T08:40:37.803Z,23.98
2023-01-26T08:43:04.997Z,25.15
2023-01-26T08:45:32.231Z,22.90
2023-01-26T08:47:59.386Z,22.05
2023-01-26T08:50:26.607Z,24.10
2023-01-26T08:52:56.252Z,27.70
2023-01-26T08:55:23.402Z,28.45
2023-01-26T08:57:55.054Z,24.75
2023-01-26T09:00:23.111Z,28.40
2023-01-26T09:02:50.469Z,23.45
2023-01-26T09:05:17.766Z,25.92
2023-01-26T09:07:44.896Z,27.52
2023-01-26T09:10:12.520Z,26.38
2023-01-26T09:12:41.178Z,28.58
2023-01-26T09:15:08.814Z,36.55
2023-01-26T09:17:36.131Z,27.35
2023-01-26T09:20:03.705Z,26.08
2023-01-26T09:22:30.942Z,26.90
2023-01-26T09:24:58.200Z,24.67
2023-01-26T09:27:25.355Z,24.73
2023-01-26T09:29:53.728Z,26.63
2023-01-26T09:32:20.899Z,27.17
2023-01-26T09:34:48.082Z,27.98
2023-01-26T09:37:15.415Z,29.02
2023-01-26T09:39:42.606Z,27.67
2023-01-26T09:42:18.599Z,30.67
2023-01-26T09:45:04.581Z,32.25
2023-01-26T09:47:32.916Z,34.53
2023-01-26T09:50:02.125Z,28.25
2023-01-26T09:52:39.962Z,30.30
2023-01-26T09:55:07.699Z,30.05
2023-01-26T09:57:37.823Z,31.65
2023-01-26T10:00:09.634Z,31.10
2023-01-26T10:02:46.288Z,31.25
2023-01-26T10:05:19.700Z,29.75
2023-01-26T10:07:46.966Z,32.95
2023-01-26T10:10:25.425Z,32.75
2023-01-26T10:12:52.800Z,29.42
2023-01-26T10:15:20.016Z,33.33
2023-01-26T10:17:47.161Z,33.13
2023-01-26T10:20:23.644Z,32.85
2023-01-26T10:22:54.922Z,33.25
2023-01-26T10:25:31.428Z,33.38
2023-01-26T10:27:58.651Z,33.00
2023-01-26T10:30:25.933Z,31.92
2023-01-26T10:32:53.312Z,31.35
2023-01-26T10:35:21.655Z,34.73
2023-01-26T10:37:49.043Z,34.42
2023-01-26T10:40:17.410Z,30.70
2023-01-26T10:42:45.463Z,33.42
2023-01-26T10:45:26.167Z,36.70
2023-01-26T10:48:14.387Z,38.55
2023-01-26T10:50:41.549Z,35.55
2023-01-26T10:53:11.425Z,34.65
2023-01-26T10:55:38.603Z,36.88
2023-01-26T10:58:05.760Z,35.72
2023-01-26T11:00:33.695Z,37.67
2023-01-26T11:03:17.431Z,36.30
2023-01-26T11:05:48.021Z,37.25
2023-01-26T11:08:36.398Z,36.78
2023-01-26T11:11:03.977Z,35.40
2023-01-26T11:13:31.170Z,37.35
2023-01-26T11:16:06.185Z,34.63
2023-01-26T11:18:42.599Z,39.22
2023-01-26T11:21:16.925Z,42.83
2023-01-26T11:23:49.995Z,37.75
2023-01-26T11:26:27.578Z,38.63
2023-01-26T11:28:59.644Z,38.40
2023-01-26T11:31:39.638Z,39.33
2023-01-26T11:34:11.211Z,36.28
2023-01-26T11:36:56.854Z,39.60
2023-01-26T11:39:24.185Z,40.17
2023-01-26T11:41:51.335Z,41.78
2023-01-26T11:44:51.207Z,41.85
2023-01-26T11:47:28.048Z,36.47
2023-01-26T11:50:04.502Z,43.40
2023-01-26T11:52:35.464Z,40.22
2023-01-26T11:55:05.710Z,38.00
2023-01-26T11:57:35.639Z,43.28
2023-01-26T12:00:30.050Z,50.47
2023-01-26T12:03:05.059Z,37.88
2023-01-26T12:05:35.835Z,52.00
2023-01-26T12:08:04.487Z,82.50
2023-01-26T12:10:37.776Z,68.47
2023-01-26T12:13:31.313Z,55.97
2023-01-26T12:16:00.595Z,57.53
2023-01-26T12:18:48.828Z,38.95
2023-01-26T12:21:19.755Z,42.78
2023-01-26T12:23:47.009Z,35.83
2023-01-26T12:26:15.185Z,38.15
2023-01-26T12:28:50.198Z,39.60
2023-01-26T12:31:17.894Z,35.88
2023-01-26T12:33:45.221Z,268.20
2023-01-26T12:36:25.548Z,44.78
2023-01-26T12:38:55.776Z,37.95
2023-01-26T12:41:33.436Z,39.42
2023-01-26T12:44:04.501Z,160.60
2023-01-26T12:46:32.303Z,67.65
2023-01-26T12:49:25.854Z,55.78
2023-01-26T12:51:55.376Z,144.10
2023-01-26T12:54:40.961Z,103.13
2023-01-26T12:57:08.715Z,40.15
2023-01-26T12:59:46.530Z,61.50
2023-01-26T13:02:31.259Z,38.47
2023-01-26T13:04:59.353Z,38.33
2023-01-26T13:07:30.591Z,48.08
2023-01-26T13:10:11.814Z,32.00
2023-01-26T13:12:57.796Z,58.30
2023-01-26T13:15:26.142Z,74.97
2023-01-26T13:17:53.354Z,54.20
2023-01-26T13:20:26.870Z,162.65
2023-01-26T13:22:54.079Z,30.75
2023-01-26T13:25:34.437Z,121.47
2023-01-26T13:28:02.323Z,65.93
2023-01-26T13:30:30.347Z,39.03
2023-01-26T13:32:59.636Z,59.53
2023-01-26T13:35:26.982Z,67.35
2023-01-26T13:37:56.698Z,27.05
2023-01-26T13:40:24.842Z,25.85
2023-01-26T13:42:52.009Z,27.00
2023-01-26T13:45:21.338Z,33.28
2023-01-26T13:47:48.585Z,30.08
2023-01-26T13:50:22.793Z,24.17
2023-01-26T13:52:49.947Z,25.13
2023-01-26T13:55:22.569Z,28.17
2023-01-26T13:57:49.772Z,25.50
2023-01-26T14:00:17.282Z,24.25
2023-01-26T14:02:46.300Z,22.63
2023-01-26T14:05:22.179Z,26.10
2023-01-26T14:07:49.372Z,47.13
2023-01-26T14:10:19.659Z,29.92
2023-01-26T14:12:47.668Z,63.72
2023-01-26T14:15:33.476Z,37.15
2023-01-26T14:18:01.578Z,87.67
2023-01-26T14:20:29.896Z,24.17
2023-01-26T14:23:15.397Z,23.27
2023-01-26T14:25:43.227Z,23.23
2023-01-26T14:28:21.492Z,22.45
2023-01-26T14:30:51.951Z,22.17
2023-01-26T14:33:19.235Z,22.13
2023-01-26T14:36:02.632Z,24.80
2023-01-26T14:38:30.154Z,30.27
2023-01-26T14:40:57.938Z,30.15
2023-01-26T14:43:25.228Z,28.30
2023-01-26T14:45:55.256Z,32.28
2023-01-26T14:48:23.322Z,37.30
2023-01-26T14:50:50.500Z,30.63
2023-01-26T14:53:26.968Z,38.08
2023-01-26T14:55:54.563Z,32.17
2023-01-26T14:58:25.306Z,36.78
2023-01-26T15:00:52.649Z,27.70
2023-01-26T15:03:30.786Z,42.97
2023-01-26T15:06:08.212Z,41.60
2023-01-26T15:08:36.325Z,35.97
2023-01-26T15:11:22.752Z,37.23
2023-01-26T15:13:54.115Z,34.95
2023-01-26T15:16:22.105Z,29.42
2023-01-26T15:19:02.455Z,44.50
2023-01-26T15:21:34.017Z,42.45
2023-01-26T15:24:01.327Z,44.28
2023-01-26T15:26:28.580Z,36.33
2023-01-26T15:28:57.335Z,36.22
2023-01-26T15:31:34.588Z,43.00
2023-01-26T15:34:02.486Z,49.83
2023-01-26T15:36:32.696Z,64.18
2023-01-26T15:39:04.227Z,46.33
2023-01-26T15:41:31.492Z,45.17
2023-01-26T15:43:59.571Z,58.93
2023-01-26T15:46:26.916Z,49.22
2023-01-26T15:48:54.151Z,53.45
2023-01-26T15:51:21.486Z,65.00
2023-01-26T15:53:48.700Z,78.28
2023-01-26T15:56:16.292Z,76.38
2023-01-26T15:58:43.684Z,44.25
2023-01-26T16:01:13.905Z,52.00
2023-01-26T16:03:41.167Z,63.45
2023-01-26T16:06:09.621Z,50.63
2023-01-26T16:08:36.789Z,86.68
2023-01-26T16:11:04.171Z,65.82
2023-01-26T16:13:33.995Z,49.92
2023-01-26T16:16:01.296Z,54.70
2023-01-26T16:18:31.581Z,64.32
2023-01-26T16:20:58.821Z,60.80
2023-01-26T16:23:27.318Z,55.15
2023-01-26T16:25:54.473Z,67.07
2023-01-26T16:28:21.763Z,73.55
2023-01-26T16:30:50.183Z,58.13
2023-01-26T16:33:20.956Z,63.78
2023-01-26T16:35:48.568Z,64.32
2023-01-26T16:38:15.942Z,68.72
2023-01-26T16:40:43.656Z,66.63
2023-01-26T16:43:24.801Z,96.67
2023-01-26T16:45:55.339Z,74.43
2023-01-26T16:48:22.835Z,128.95
2023-01-26T16:50:53.750Z,106.35
2023-01-26T16:53:22.699Z,71.85
2023-01-26T16:55:49.976Z,101.03
2023-01-26T16:58:17.335Z,139.68
2023-01-26T17:00:44.531Z,101.40
2023-01-26T17:03:14.805Z,99.47
2023-01-26T17:05:42.275Z,67.23
2023-01-26T17:08:09.463Z,56.92
2023-01-26T17:10:36.661Z,78.40
2023-01-26T17:13:03.831Z,50.75
2023-01-26T17:15:31.267Z,104.37
2023-01-26T17:17:58.465Z,88.93
2023-01-26T17:20:25.648Z,54.70
2023-01-26T17:22:53.320Z,72.90
2023-01-26T17:25:20.526Z,61.03
2023-01-26T17:27:49.856Z,74.63
2023-01-26T17:30:17.996Z,79.10
2023-01-26T17:32:45.231Z,59.70
2023-01-26T17:35:12.839Z,49.40
2023-01-26T17:37:40.270Z,112.70
2023-01-26T17:40:08.091Z,59.47
2023-01-26T17:42:36.289Z,54.38
2023-01-26T17:45:04.176Z,50.85
2023-01-26T17:47:34.262Z,84.72
2023-01-26T17:50:01.703Z,95.88
2023-01-26T17:52:28.992Z,70.03
2023-01-26T17:54:56.201Z,123.03
2023-01-26T17:57:23.347Z,71.72
2023-01-26T17:59:50.514Z,95.60
2023-01-26T18:02:17.816Z,125.40
2023-01-26T18:04:45.052Z,67.83
2023-01-26T18:07:12.239Z,78.60
2023-01-26T18:09:39.422Z,128.55
2023-01-26T18:12:06.947Z,98.13
2023-01-26T18:14:34.145Z,105.60
2023-01-26T18:17:01.819Z,63.43
2023-01-26T18:19:29.002Z,61.60
2023-01-26T18:21:56.191Z,52.70
2023-01-26T18:24:23.372Z,121.85
2023-01-26T18:26:51.825Z,80.75
2023-01-26T18:29:19.013Z,50.92
2023-01-26T18:31:47.929Z,62.58
2023-01-26T18:34:15.263Z,53.13
2023-01-26T18:36:42.409Z,46.08
2023-01-26T18:39:10.149Z,50.00
2023-01-26T18:41:40.274Z,81.03
2023-01-26T18:44:08.302Z,77.38
2023-01-26T18:46:35.583Z,70.03
2023-01-26T18:49:03.566Z,52.20
2023-01-26T18:51:31.466Z,77.13
2023-01-26T18:53:58.658Z,59.22
2023-01-26T18:56:25.974Z,53.70
2023-01-26T18:58:53.823Z,61.42
2023-01-26T19:01:21.386Z,111.82
2023-01-26T19:03:54.192Z,60.92
2023-01-26T19:06:21.977Z,56.77
2023-01-26T19:08:58.420Z,63.05
2023-01-26T19:11:36.621Z,59.05
2023-01-26T19:14:03.914Z,102.90
2023-01-26T19:16:31.256Z,112.38
2023-01-26T19:18:58.550Z,74.88
2023-01-26T19:21:27.364Z,69.50
2023-01-26T19:23:55.292Z,66.50
2023-01-26T19:26:23.329Z,50.47
2023-01-26T19:28:51.066Z,44.67
2023-01-26T19:31:19.364Z,51.63
2023-01-26T19:33:50.452Z,44.72
2023-01-26T19:36:17.645Z,48.83
2023-01-26T19:38:44.781Z,52.03
2023-01-26T19:41:12.340Z,58.60
2023-01-26T19:43:39.548Z,73.97
2023-01-26T19:46:08.481Z,53.67
2023-01-26T19:48:35.680Z,46.63
2023-01-26T19:51:04.014Z,50.22
2023-01-26T19:53:31.937Z,53.35
2023-01-26T19:56:01.954Z,54.65
2023-01-26T19:58:29.223Z,49.33
2023-01-26T20:01:02.935Z,41.83
2023-01-26T20:03:30.208Z,48.67
2023-01-26T20:05:57.484Z,52.97
2023-01-26T20:08:25.336Z,54.85
2023-01-26T20:10:52.598Z,63.28
2023-01-26T20:13:20.379Z,53.08
2023-01-26T20:15:48.246Z,43.00
2023-01-26T20:18:15.486Z,45.45
2023-01-26T20:20:42.661Z,43.78
2023-01-26T20:23:09.892Z,40.17
2023-01-26T20:25:37.294Z,44.25
2023-01-26T20:28:04.573Z,45.38
2023-01-26T20:30:32.060Z,37.13
2023-01-26T20:32:59.319Z,45.90
2023-01-26T20:35:26.482Z,42.85
2023-01-26T20:37:53.752Z,43.40
2023-01-26T20:40:20.951Z,49.72
2023-01-26T20:42:48.780Z,41.80
2023-01-26T20:45:15.955Z,50.73
2023-01-26T20:47:43.553Z,39.40
2023-01-26T20:50:11.922Z,41.28
2023-01-26T20:52:40.822Z,36.70
2023-01-26T20:55:11.726Z,37.90
2023-01-26T20:57:38.881Z,36.40
2023-01-26T21:00:09.332Z,40.15
2023-01-26T21:02:36.487Z,39.65
2023-01-26T21:05:05.226Z,32.45
2023-01-26T21:07:32.437Z,46.67
2023-01-26T21:09:59.585Z,36.83
2023-01-26T21:12:28.071Z,29.83
2023-01-26T21:14:55.308Z,38.17
2023-01-26T21:17:22.973Z,35.08
2023-01-26T21:19:50.184Z,46.88
2023-01-26T21:22:17.346Z,50.60
2023-01-26T21:24:44.534Z,47.88
2023-01-26T21:27:11.717Z,40.17
2023-01-26T21:29:40.461Z,42.20
2023-01-26T21:32:08.388Z,33.10
2023-01-26T21:34:35.602Z,31.50
2023-01-26T21:37:02.792Z,32.60
2023-01-26T21:39:30.185Z,30.48
2023-01-26T21:41:57.423Z,29.45
2023-01-26T21:44:31.273Z,30.30
2023-01-26T21:46:59.417Z,26.20
2023-01-26T21:49:26.804Z,25.05
2023-01-26T21:52:12.621Z,24.55
2023-01-26T21:54:39.792Z,28.70
2023-01-26T21:57:26.019Z,24.70
2023-01-26T21:59:53.503Z,22.48
2023-01-26T22:02:20.771Z,24.85
2023-01-26T22:04:47.895Z,24.02
2023-01-26T22:07:15.076Z,22.92
2023-01-26T22:09:42.608Z,18.15
2023-01-26T22:12:09.770Z,20.38
2023-01-26T22:14:36.932Z,16.63
2023-01-26T22:17:04.092Z,15.52
2023-01-26T22:19:31.269Z,17.40
2023-01-26T22:21:58.628Z,17.42
2023-01-26T22:24:25.809Z,16.55
2023-01-26T22:26:53.159Z,17.95
2023-01-26T22:29:20.337Z,17.90
2023-01-26T22:31:47.732Z,21.30
2023-01-26T22:34:14.961Z,15.68
2023-01-26T22:36:42.213Z,15.75
2023-01-26T22:39:09.485Z,15.88
2023-01-26T22:41:37.846Z,28.55
2023-01-26T22:44:05.148Z,22.20
2023-01-26T22:46:32.502Z,19.67
2023-01-26T22:48:59.739Z,17.80
2023-01-26T22:51:30.147Z,17.52
2023-01-26T22:53:57.548Z,16.00
2023-01-26T22:56:25.063Z,19.80
2023-01-26T22:58:58.034Z,17.10
2023-01-26T23:01:26.399Z,15.02
2023-01-26T23:03:56.264Z,15.48
2023-01-26T23:06:23.655Z,17.65
2023-01-26T23:08:52.198Z,19.10
2023-01-26T23:11:23.284Z,17.50
2023-01-26T23:13:51.080Z,19.75
2023-01-26T23:16:18.430Z,19.98
2023-01-26T23:18:45.661Z,24.83
2023-01-26T23:21:13.143Z,21.17
2023-01-26T23:23:40.958Z,19.30
2023-01-26T23:26:08.222Z,17.52
2023-01-26T23:28:39.068Z,14.32
2023-01-26T23:31:06.283Z,11.07
2023-01-26T23:33:33.893Z,9.38
2023-01-26T23:36:01.066Z,8.43
2023-01-26T23:38:28.536Z,6.93
2023-01-26T23:40:55.896Z,7.07
2023-01-26T23:43:23.179Z,6.60
2023-01-26T23:45:50.895Z,7.82
2023-01-26T23:48:18.154Z,6.32
2023-01-26T23:50:45.463Z,6.18
2023-01-26T23:53:12.678Z,7.80
2023-01-26T23:55:43.036Z,6.50
2023-01-26T23:58:10.476Z,5.18
